Time;durP1;ratioP1;P1;durP2;ratioP2;P2;SDS_P1;SDS_P2;PMS_P1;PMS_P2;Temp;Humidity;BMP_temperature;BMP_pressure;BME280_temperature;BME280_humidity;BME280_pressure;Samples;Min_cycle;Max_cycle;Signal;HPM_P1;HPM_P2
2023/09/30 00:01:41;;;;;;;11.48;6.93;;;;;;;24.67;42.40;100727.41;5113519;28;20043;-65
2023/09/30 00:04:10;;;;;;;9.68;6.45;;;;;;;24.65;42.48;100725.88;5113700;28;20052;-65
2023/09/30 00:06:39;;;;;;;10.90;6.47;;;;;;;24.64;42.61;100726.91;5109463;28;20512;-65
2023/09/30 00:09:07;;;;;;;8.35;6.43;;;;;;;24.64;42.48;100729.63;5093223;28;20044;-65
2023/09/30 00:11:37;;;;;;;9.55;6.72;;;;;;;24.62;42.61;100728.94;5092898;28;20059;-65
2023/09/30 00:14:06;;;;;;;8.23;6.50;;;;;;;24.61;42.67;100728.09;5093080;28;20087;-65
2023/09/30 00:16:34;;;;;;;9.77;6.30;;;;;;;24.59;42.67;100724.66;5092905;28;20047;-65
2023/09/30 00:19:03;;;;;;;8.38;6.07;;;;;;;24.59;42.72;100726.53;5092854;28;20551;-65
2023/09/30 00:21:31;;;;;;;8.48;6.30;;;;;;;24.57;42.56;100723.16;5092975;28;20481;-65
2023/09/30 00:24:00;;;;;;;8.63;6.63;;;;;;;24.54;42.63;100722.47;5092992;28;20044;-65
2023/09/30 00:26:28;;;;;;;8.77;6.28;;;;;;;24.54;42.64;100721.63;5092926;28;20413;-65
2023/09/30 00:28:58;;;;;;;9.90;6.90;;;;;;;24.53;42.63;100728.94;5092657;28;20058;-67
2023/09/30 00:31:26;;;;;;;8.23;5.80;;;;;;;24.51;42.84;100722.81;5092921;28;20075;-66
2023/09/30 00:33:55;;;;;;;8.95;6.32;;;;;;;24.50;42.65;100715.63;5092743;28;20044;-66
2023/09/30 00:36:24;;;;;;;8.05;6.10;;;;;;;24.48;42.94;100719.56;5092744;28;20121;-65
2023/09/30 00:38:53;;;;;;;9.48;6.30;;;;;;;24.46;42.85;100708.00;5092431;28;20052;-66
2023/09/30 00:41:21;;;;;;;7.88;5.78;;;;;;;24.46;42.78;100708.84;5092487;28;20048;-66
2023/09/30 00:43:50;;;;;;;8.75;6.60;;;;;;;24.45;42.76;100706.28;5092478;28;20075;-66
2023/09/30 00:46:27;;;;;;;9.73;5.95;;;;;;;24.44;42.62;100702.72;5092572;28;20052;-66
2023/09/30 00:48:58;;;;;;;9.20;6.15;;;;;;;24.43;42.83;100695.56;5092537;28;20130;-66
2023/09/30 00:51:27;;;;;;;10.55;6.88;;;;;;;24.41;42.78;100705.75;5092613;28;20386;-66
2023/09/30 00:53:57;;;;;;;9.27;6.40;;;;;;;24.39;42.77;100705.09;5092193;28;20044;-66
2023/09/30 00:56:28;;;;;;;8.88;6.38;;;;;;;24.39;42.80;100701.50;5092443;28;20071;-66
2023/09/30 00:58:57;;;;;;;9.10;6.30;;;;;;;24.38;42.80;100694.34;5092163;28;20507;-66
2023/09/30 01:01:27;;;;;;;9.07;6.05;;;;;;;24.35;42.80;100692.84;5092207;28;20044;-66
2023/09/30 01:03:56;;;;;;;9.05;5.82;;;;;;;24.35;42.68;100702.88;5092130;28;20082;-66
2023/09/30 01:06:24;;;;;;;8.38;5.80;;;;;;;24.32;42.70;100692.31;5092056;28;20109;-66
2023/09/30 01:08:53;;;;;;;7.95;5.90;;;;;;;24.32;42.96;100695.91;5092068;28;20048;-66
2023/09/30 01:11:22;;;;;;;9.52;5.97;;;;;;;24.31;42.90;100699.63;5092025;28;20659;-66
2023/09/30 01:13:50;;;;;;;9.90;6.10;;;;;;;24.30;43.04;100699.78;5091956;28;20134;-65
2023/09/30 01:16:19;;;;;;;7.78;5.90;;;;;;;24.29;43.11;100693.47;5091682;28;20497;-65
2023/09/30 01:18:48;;;;;;;8.15;5.78;;;;;;;24.27;42.95;100693.63;5091989;28;20400;-66
2023/09/30 01:21:19;;;;;;;7.82;6.00;;;;;;;24.27;42.87;100692.78;5091856;28;20044;-66
2023/09/30 01:23:48;;;;;;;8.55;6.35;;;;;;;24.24;43.16;100694.00;5091927;28;20044;-66
2023/09/30 01:26:17;;;;;;;7.80;5.63;;;;;;;24.25;42.89;100697.56;5092000;28;20459;-66
2023/09/30 01:28:48;;;;;;;7.38;5.68;;;;;;;24.23;42.87;100705.06;5091727;28;20055;-65
2023/09/30 01:31:18;;;;;;;7.68;5.90;;;;;;;24.23;42.94;100702.34;5092008;28;20447;-65
2023/09/30 01:33:47;;;;;;;8.77;6.05;;;;;;;24.21;43.06;100704.38;5091597;28;20051;-65
2023/09/30 01:36:17;;;;;;;8.13;5.90;;;;;;;24.19;43.03;100695.50;5091957;28;20055;-66
2023/09/30 01:38:46;;;;;;;7.00;5.07;;;;;;;24.20;42.86;100702.66;5091909;28;20040;-66
2023/09/30 01:41:16;;;;;;;8.23;6.00;;;;;;;24.18;42.86;100699.25;5091705;28;20147;-66
2023/09/30 01:43:44;;;;;;;9.43;5.90;;;;;;;24.17;43.06;100700.28;5091928;28;20050;-65
2023/09/30 01:46:12;;;;;;;8.27;6.07;;;;;;;24.15;43.05;100699.63;5091513;28;20048;-65
2023/09/30 01:48:40;;;;;;;8.07;6.07;;;;;;;24.13;42.79;100696.22;5091845;28;20101;-66
2023/09/30 01:51:09;;;;;;;8.38;6.20;;;;;;;24.14;43.04;100695.19;5091818;28;20087;-65
2023/09/30 01:53:37;;;;;;;8.52;5.93;;;;;;;24.12;43.03;100695.31;5091633;28;20101;-65
2023/09/30 01:56:06;;;;;;;7.88;5.82;;;;;;;24.11;43.00;100692.78;5091628;28;20091;-65
2023/09/30 01:58:35;;;;;;;8.52;5.88;;;;;;;24.09;43.02;100692.09;5091568;28;20404;-65
2023/09/30 02:01:04;;;;;;;7.70;5.15;;;;;;;24.08;43.11;100688.53;5091511;28;20040;-64
2023/09/30 02:03:33;;;;;;;8.30;5.70;;;;;;;24.07;43.05;100686.81;5091430;28;20512;-64
2023/09/30 02:06:03;;;;;;;7.53;6.07;;;;;;;24.07;43.23;100691.44;5091619;28;20060;-65
2023/09/30 02:08:31;;;;;;;8.00;6.05;;;;;;;24.07;43.25;100691.44;5091520;28;20044;-64
2023/09/30 02:11:00;;;;;;;8.40;6.10;;;;;;;24.04;43.21;100678.16;5091210;28;20485;-65
2023/09/30 02:13:28;;;;;;;9.00;6.20;;;;;;;24.03;43.53;100684.59;5091255;28;20059;-65
2023/09/30 02:15:58;;;;;;;8.65;6.00;;;;;;;24.02;43.23;100693.78;5091535;28;20044;-65
2023/09/30 02:18:26;;;;;;;8.48;6.20;;;;;;;24.01;43.28;100692.09;5091303;28;20603;-67
2023/09/30 02:20:55;;;;;;;8.27;6.38;;;;;;;23.99;43.29;100693.09;5091369;28;20044;-66
2023/09/30 02:23:24;;;;;;;7.47;5.88;;;;;;;23.98;43.16;100685.97;5091191;28;20044;-64
2023/09/30 02:25:53;;;;;;;8.85;6.22;;;;;;;23.96;43.33;100688.00;5091236;28;20054;-65
2023/09/30 02:28:21;;;;;;;8.68;6.20;;;;;;;23.95;43.24;100680.84;5094831;28;20048;-66
2023/09/30 02:30:49;;;;;;;8.07;6.25;;;;;;;23.94;43.31;100681.88;5095193;28;20040;-65
2023/09/30 02:33:19;;;;;;;8.80;6.75;;;;;;;23.92;43.15;100675.72;5095013;28;20463;-65
2023/09/30 02:35:48;;;;;;;6.85;5.40;;;;;;;23.92;43.26;100680.31;5095179;28;20044;-66
2023/09/30 02:38:18;;;;;;;7.38;5.72;;;;;;;23.92;43.29;100677.59;5094976;28;20446;-65
2023/09/30 02:40:46;;;;;;;9.15;6.30;;;;;;;23.90;43.39;100669.59;5094785;28;20105;-64
2023/09/30 02:43:15;;;;;;;9.23;6.05;;;;;;;23.90;43.50;100674.19;5094642;28;20492;-66
2023/09/30 02:45:44;;;;;;;8.65;6.40;;;;;;;23.88;43.53;100677.09;5094854;28;20056;-66
2023/09/30 02:48:13;;;;;;;10.20;6.00;;;;;;;23.87;43.22;100677.28;5094707;28;20055;-65
2023/09/30 02:50:45;;;;;;;9.48;6.45;;;;;;;23.85;43.40;100677.44;5094770;28;20048;-64
2023/09/30 02:53:14;;;;;;;9.93;6.13;;;;;;;23.85;43.39;100674.72;5094500;28;20044;-65
2023/09/30 02:55:43;;;;;;;7.53;5.85;;;;;;;23.84;43.46;100674.88;5094559;28;20048;-64
2023/09/30 02:58:12;;;;;;;8.68;5.85;;;;;;;23.84;43.49;100677.63;5094551;28;20105;-65
2023/09/30 03:00:40;;;;;;;8.52;6.07;;;;;;;23.82;43.52;100679.63;5094558;28;20048;-66
2023/09/30 03:03:09;;;;;;;8.50;6.15;;;;;;;23.81;43.54;100678.78;5094325;28;20566;-64
2023/09/30 03:05:37;;;;;;;7.38;5.60;;;;;;;23.80;43.48;100687.97;5094288;28;20048;-64
2023/09/30 03:08:07;;;;;;;8.90;5.78;;;;;;;23.80;43.47;100689.84;5094212;28;20044;-66
2023/09/30 03:10:40;;;;;;;9.35;6.45;;;;;;;23.77;43.50;100691.03;5094347;28;20040;-64
2023/09/30 03:13:09;;;;;;;9.00;6.20;;;;;;;23.78;43.29;100690.03;5094346;28;20124;-65
2023/09/30 03:15:38;;;;;;;7.75;5.95;;;;;;;23.76;43.50;100691.22;5094139;28;20055;-65
2023/09/30 03:18:07;;;;;;;8.27;6.22;;;;;;;23.74;43.95;100688.66;5094043;28;20462;-65
2023/09/30 03:20:39;;;;;;;7.78;6.22;;;;;;;23.74;43.66;100691.38;5093985;28;20130;-65
2023/09/30 03:23:09;;;;;;;9.13;6.20;;;;;;;23.73;43.41;100681.47;5094190;28;20088;-64
2023/09/30 03:25:38;;;;;;;8.57;6.30;;;;;;;23.72;43.52;100687.94;5094074;28;20044;-64
2023/09/30 03:28:06;;;;;;;7.95;6.10;;;;;;;23.70;43.64;100693.56;5094188;28;20047;-64
2023/09/30 03:30:35;;;;;;;10.27;6.85;;;;;;;23.69;43.41;100700.03;5093918;28;20079;-65
2023/09/30 03:33:04;;;;;;;8.50;5.90;;;;;;;23.69;43.61;100699.19;5093747;28;20051;-65
2023/09/30 03:35:33;;;;;;;7.88;5.80;;;;;;;23.67;43.59;100696.63;5093943;28;20044;-65
2023/09/30 03:38:02;;;;;;;10.00;6.20;;;;;;;23.66;43.47;100699.53;5093217;28;20079;-66
2023/09/30 03:40:33;;;;;;;7.47;5.72;;;;;;;23.66;43.61;100699.53;5093748;28;20135;-65
2023/09/30 03:43:02;;;;;;;7.50;5.80;;;;;;;23.64;43.68;100699.69;5093497;28;20127;-65
2023/09/30 03:45:32;;;;;;;8.73;6.50;;;;;;;23.65;43.56;100697.84;5093608;28;20051;-65
2023/09/30 03:48:03;;;;;;;8.13;6.00;;;;;;;23.63;43.85;100697.13;5093683;28;20131;-65
2023/09/30 03:50:31;;;;;;;8.23;6.13;;;;;;;23.61;43.58;100696.44;5093634;28;20472;-64
2023/09/30 03:53:02;;;;;;;7.60;5.93;;;;;;;23.61;43.65;100693.72;5093473;28;20052;-64
2023/09/30 03:55:33;;;;;;;9.63;6.13;;;;;;;23.60;43.70;100700.19;5093422;28;20424;-64
2023/09/30 03:58:02;;;;;;;7.28;5.40;;;;;;;23.60;43.66;100700.19;5093197;28;20054;-66
2023/09/30 04:00:31;;;;;;;7.95;6.07;;;;;;;23.59;43.64;100703.94;5093397;28;20048;-65
2023/09/30 04:02:59;;;;;;;7.43;5.85;;;;;;;23.57;43.83;100695.91;5093182;28;20048;-65
2023/09/30 04:05:31;;;;;;;7.72;6.15;;;;;;;23.56;43.72;100696.91;5093137;28;20044;-65
2023/09/30 04:08:00;;;;;;;8.15;6.00;;;;;;;23.56;43.60;100698.78;5093321;28;20044;-65
2023/09/30 04:10:29;;;;;;;9.05;6.10;;;;;;;23.56;43.76;100698.78;5093158;28;20051;-64
2023/09/30 04:12:59;;;;;;;7.95;6.22;;;;;;;23.54;43.82;100700.78;5092951;28;20056;-64
2023/09/30 04:15:28;;;;;;;8.88;6.20;;;;;;;23.53;43.77;100693.66;5093271;28;20087;-65
2023/09/30 04:17:56;;;;;;;13.18;6.25;;;;;;;23.50;43.75;100694.00;5093095;28;20464;-64
2023/09/30 04:20:26;;;;;;;8.85;6.18;;;;;;;23.50;43.76;100692.13;5093318;28;20094;-66
2023/09/30 04:22:57;;;;;;;10.23;6.97;;;;;;;23.49;43.62;100700.47;5092814;28;20491;-65
2023/09/30 04:25:26;;;;;;;9.65;6.80;;;;;;;23.49;43.81;100695.00;5100459;28;20052;-64
2023/09/30 04:27:54;;;;;;;9.05;7.10;;;;;;;23.47;43.86;100697.91;5113066;28;20708;-65
2023/09/30 04:30:24;;;;;;;9.25;7.18;;;;;;;23.47;43.73;100700.63;5113157;28;20076;-65
2023/09/30 04:32:53;;;;;;;9.88;7.50;;;;;;;23.45;43.73;100699.94;5112990;28;20134;-65
2023/09/30 04:35:21;;;;;;;8.77;7.05;;;;;;;23.45;43.71;100705.41;5113043;28;20067;-65
2023/09/30 04:37:51;;;;;;;10.25;7.55;;;;;;;23.43;43.79;100707.41;5112702;28;20040;-64
2023/09/30 04:40:20;;;;;;;8.32;6.85;;;;;;;23.43;44.00;100704.69;5112811;28;20475;-65
2023/09/30 04:42:49;;;;;;;9.65;7.25;;;;;;;23.42;43.95;100706.56;5112886;28;20047;-64
2023/09/30 04:45:20;;;;;;;9.35;7.05;;;;;;;23.41;43.88;100712.16;5112673;28;20449;-65
2023/09/30 04:47:51;;;;;;;9.23;6.90;;;;;;;23.38;43.94;100707.06;5112301;28;20131;-65
2023/09/30 04:50:21;;;;;;;9.45;6.70;;;;;;;23.40;43.96;100707.75;5111512;28;20068;-65
2023/09/30 04:52:51;;;;;;;9.98;6.85;;;;;;;23.32;43.74;100699.53;5109515;28;20074;-65
2023/09/30 04:55:21;;;;;;;9.65;6.97;;;;;;;23.36;44.00;100720.84;5112414;28;20048;-64
2023/09/30 04:57:49;;;;;;;8.43;6.47;;;;;;;23.36;44.04;100714.53;5109453;28;20499;-64
2023/09/30 05:00:28;;;;;;;8.57;6.43;;;;;;;23.35;44.01;100719.09;5112229;28;20039;-64
2023/09/30 05:02:59;;;;;;;10.13;6.60;;;;;;;23.34;43.99;100711.09;5111915;28;20074;-64
2023/09/30 05:05:28;;;;;;;7.57;6.18;;;;;;;23.34;43.85;100711.97;5112124;28;20059;-65
2023/09/30 05:07:57;;;;;;;8.95;6.60;;;;;;;23.33;44.02;100721.13;5109891;28;20043;-64
2023/09/30 05:10:26;;;;;;;8.68;6.45;;;;;;;23.32;44.06;100716.72;5112271;28;20209;-65
2023/09/30 05:12:54;;;;;;;9.23;6.60;;;;;;;23.33;43.99;100725.72;5112174;28;20047;-65
2023/09/30 05:15:23;;;;;;;8.38;6.82;;;;;;;23.32;43.89;100733.06;5112129;28;20097;-65
2023/09/30 05:17:51;;;;;;;9.80;6.70;;;;;;;23.31;44.10;100736.78;5112102;28;20044;-65
2023/09/30 05:20:22;;;;;;;9.35;6.60;;;;;;;23.31;43.96;100728.63;5112099;28;20040;-65
2023/09/30 05:22:51;;;;;;;8.13;6.25;;;;;;;23.31;44.11;100739.50;5112266;28;20047;-66
2023/09/30 05:25:19;;;;;;;9.38;6.95;;;;;;;23.30;44.01;100736.97;5112174;28;20130;-66
2023/09/30 05:27:48;;;;;;;9.15;6.45;;;;;;;23.30;44.02;100742.41;5112100;28;20039;-64
2023/09/30 05:30:19;;;;;;;8.90;6.68;;;;;;;23.28;44.04;100734.41;5111982;28;20050;-66
2023/09/30 05:32:48;;;;;;;8.80;6.32;;;;;;;23.29;43.90;100740.69;5112159;28;20044;-66
2023/09/30 05:35:17;;;;;;;9.38;6.80;;;;;;;23.27;44.04;100738.16;5112129;28;20048;-64
2023/09/30 05:37:47;;;;;;;10.00;6.72;;;;;;;23.28;44.10;100745.28;5111959;28;20484;-65
2023/09/30 05:40:21;;;;;;;9.00;6.68;;;;;;;23.27;44.03;100740.88;5111971;28;20404;-64
2023/09/30 05:42:52;;;;;;;9.60;6.60;;;;;;;23.27;44.13;100746.31;5111974;28;20123;-64
2023/09/30 05:45:21;;;;;;;7.32;6.07;;;;;;;23.26;44.24;100744.59;5112343;28;20050;-65
2023/09/30 05:47:49;;;;;;;9.23;6.88;;;;;;;23.25;44.19;100745.59;5112059;28;20047;-64
2023/09/30 05:50:23;;;;;;;9.35;6.72;;;;;;;23.25;44.14;100740.16;5111823;28;20500;-63
2023/09/30 05:52:54;;;;;;;8.82;7.00;;;;;;;23.25;44.42;100748.31;5112158;28;20092;-66
2023/09/30 05:55:25;;;;;;;9.48;6.57;;;;;;;23.26;44.29;100746.44;5111728;28;20052;-65
2023/09/30 05:57:54;;;;;;;8.48;6.82;;;;;;;23.25;44.28;100751.03;5111845;28;20677;-64
2023/09/30 06:00:29;;;;;;;8.35;6.25;;;;;;;23.24;44.38;100743.88;5111795;28;20127;-65
2023/09/30 06:02:58;;;;;;;8.45;6.65;;;;;;;23.24;44.13;100743.88;5115185;28;20043;-65
2023/09/30 06:05:29;;;;;;;7.85;6.07;;;;;;;23.25;44.28;100744.75;5116079;28;20445;-65
2023/09/30 06:08:02;;;;;;;9.07;6.47;;;;;;;23.25;44.22;100751.03;5116088;28;20400;-65
2023/09/30 06:10:31;;;;;;;7.95;6.20;;;;;;;23.25;44.42;100745.59;5115957;28;20093;-66
2023/09/30 06:12:59;;;;;;;8.32;6.25;;;;;;;23.23;44.33;100741.34;5115614;28;20059;-65
2023/09/30 06:15:28;;;;;;;8.38;6.60;;;;;;;23.24;44.35;100749.34;5115721;28;20055;-65
2023/09/30 06:17:59;;;;;;;7.47;6.22;;;;;;;23.24;44.43;100757.50;5115665;28;20134;-65
2023/09/30 06:20:30;;;;;;;8.88;6.03;;;;;;;23.24;44.43;100757.50;5115713;28;20039;-65
2023/09/30 06:23:01;;;;;;;8.48;6.20;;;;;;;23.23;44.29;100758.50;5115679;28;20047;-65
2023/09/30 06:25:30;;;;;;;8.55;6.15;;;;;;;23.24;44.47;100752.06;5115845;28;20055;-65
2023/09/30 06:27:58;;;;;;;8.23;6.20;;;;;;;23.24;44.59;100749.34;5115290;28;20046;-65
2023/09/30 06:30:29;;;;;;;9.23;6.13;;;;;;;23.24;44.55;100752.06;5115454;28;20056;-66
2023/09/30 06:33:00;;;;;;;8.18;6.00;;;;;;;23.24;44.52;100756.66;5115576;28;20086;-65
2023/09/30 06:35:30;;;;;;;7.90;6.18;;;;;;;23.24;44.41;100757.50;5115496;28;20043;-65
2023/09/30 06:38:01;;;;;;;9.77;6.63;;;;;;;23.23;44.55;100753.06;5115465;28;20519;-66
2023/09/30 06:40:29;;;;;;;8.75;5.97;;;;;;;23.25;44.70;100755.63;5115208;28;20134;-66
2023/09/30 06:42:58;;;;;;;7.70;6.18;;;;;;;23.25;44.58;100755.63;5115096;28;20039;-66
2023/09/30 06:45:26;;;;;;;9.18;6.00;;;;;;;23.24;44.49;100753.94;5114987;28;20135;-66
2023/09/30 06:47:55;;;;;;;8.40;6.20;;;;;;;23.25;44.49;100756.47;5115241;28;20050;-66
2023/09/30 06:50:24;;;;;;;7.43;5.95;;;;;;;23.24;44.57;100754.78;5115226;28;20139;-66
2023/09/30 06:52:52;;;;;;;7.13;5.88;;;;;;;23.25;44.67;100758.34;5114858;28;20503;-66
2023/09/30 06:55:22;;;;;;;8.27;6.07;;;;;;;23.24;44.56;100764.81;5114930;28;20043;-66
2023/09/30 06:57:50;;;;;;;8.35;5.68;;;;;;;23.24;44.66;100765.66;5114849;28;20043;-66
2023/09/30 07:00:19;;;;;;;8.25;5.68;;;;;;;23.24;44.73;100767.53;5114921;28;20054;-66
2023/09/30 07:02:47;;;;;;;8.05;5.82;;;;;;;23.24;44.58;100770.25;5114925;28;20058;-66
2023/09/30 07:05:17;;;;;;;9.27;6.10;;;;;;;23.24;44.93;100771.09;5114542;28;20061;-65
2023/09/30 07:07:45;;;;;;;9.88;5.38;;;;;;;23.24;44.81;100764.81;5107144;28;20044;-65
2023/09/30 07:10:14;;;;;;;7.72;5.93;;;;;;;23.22;44.64;100759.53;5107381;28;20500;-65
2023/09/30 07:12:44;;;;;;;7.20;5.75;;;;;;;23.24;44.77;100771.09;5113539;28;20050;-65
2023/09/30 07:15:13;;;;;;;8.10;5.60;;;;;;;23.24;44.80;100776.53;5093928;28;20044;-65
2023/09/30 07:17:43;;;;;;;7.53;6.15;;;;;;;23.24;44.93;100773.81;5094112;28;20043;-65
2023/09/30 07:20:13;;;;;;;7.50;5.40;;;;;;;23.25;44.81;100774.69;5100090;28;20048;-65
2023/09/30 07:22:42;;;;;;;8.20;5.78;;;;;;;23.25;44.73;100777.41;5114106;28;20048;-65
2023/09/30 07:25:31;;;;;;;7.80;5.65;;;;;;;23.24;45.05;100765.66;5114463;28;20457;-65
2023/09/30 07:28:01;;;;;;;8.15;5.57;;;;;;;23.27;45.03;100769.94;5114395;28;20104;-66
2023/09/30 07:30:29;;;;;;;9.02;6.20;;;;;;;23.25;45.13;100775.53;5114266;28;20051;-65
2023/09/30 07:32:57;;;;;;;7.93;5.60;;;;;;;23.25;45.01;100778.25;5113948;28;20058;-65
2023/09/30 07:35:26;;;;;;;7.75;5.72;;;;;;;23.25;44.91;100778.25;5108009;28;20044;-65
2023/09/30 07:37:54;;;;;;;7.82;5.85;;;;;;;23.26;45.20;100782.72;5093440;28;20048;-65
2023/09/30 07:40:22;;;;;;;7.72;5.82;;;;;;;23.29;44.91;100789.69;5093677;28;20512;-65
2023/09/30 07:42:51;;;;;;;8.93;6.22;;;;;;;23.29;45.05;100785.09;5093505;28;20055;-65
2023/09/30 07:45:21;;;;;;;8.18;6.15;;;;;;;23.29;45.37;100785.09;5093373;28;20044;-65
2023/09/30 07:47:49;;;;;;;7.47;5.60;;;;;;;23.30;45.27;100780.50;5093169;28;20051;-65
2023/09/30 07:50:18;;;;;;;8.45;5.63;;;;;;;23.30;45.26;100780.50;5091481;28;20536;-65
2023/09/30 07:52:46;;;;;;;6.78;5.47;;;;;;;23.31;45.07;100783.06;5091340;28;20048;-65
2023/09/30 07:55:14;;;;;;;8.68;5.70;;;;;;;23.31;45.29;100788.50;5091420;28;20135;-65
2023/09/30 07:57:44;;;;;;;9.07;5.90;;;;;;;23.32;45.18;100782.03;5091180;28;20134;-64
2023/09/30 08:00:15;;;;;;;7.72;5.93;;;;;;;23.33;45.21;100777.44;5091224;28;20051;-65
2023/09/30 08:02:45;;;;;;;7.00;5.60;;;;;;;23.32;44.91;100773.03;5091763;28;20040;-66
2023/09/30 08:05:14;;;;;;;7.60;5.82;;;;;;;23.35;45.16;100783.56;5092680;28;20040;-65
2023/09/30 08:07:42;;;;;;;8.65;5.80;;;;;;;23.35;45.24;100784.44;5093142;28;20135;-65
2023/09/30 08:10:13;;;;;;;8.15;5.45;;;;;;;23.38;45.42;100789.56;5093009;28;20143;-65
2023/09/30 08:12:42;;;;;;;7.05;5.18;;;;;;;23.38;45.15;100792.28;5092840;28;20137;-65
2023/09/30 08:15:12;;;;;;;6.97;5.68;;;;;;;23.38;45.18;100786.84;5092793;28;20052;-65
2023/09/30 08:17:41;;;;;;;6.75;5.50;;;;;;;23.39;45.27;100785.84;5092873;28;20134;-65
2023/09/30 08:20:13;;;;;;;7.15;5.55;;;;;;;23.41;45.13;100788.38;5093052;28;20076;-65
2023/09/30 08:22:42;;;;;;;7.32;5.80;;;;;;;23.42;45.22;100796.38;5098491;28;20048;-65
2023/09/30 08:25:11;;;;;;;7.72;5.88;;;;;;;23.43;45.22;100787.19;5112806;28;20054;-65
2023/09/30 08:27:40;;;;;;;7.32;5.60;;;;;;;23.43;45.20;100781.75;5112736;28;20484;-64
2023/09/30 08:30:10;;;;;;;6.68;5.57;;;;;;;23.46;45.08;100787.91;5112757;28;20055;-65
2023/09/30 08:32:39;;;;;;;8.48;5.82;;;;;;;23.46;45.23;100785.19;5112896;28;20126;-65
2023/09/30 08:35:09;;;;;;;6.30;5.40;;;;;;;23.47;45.17;100784.16;5112884;28;20052;-68
2023/09/30 08:37:39;;;;;;;7.55;5.43;;;;;;;23.47;45.20;100776.00;5112817;28;20044;-69
2023/09/30 08:40:09;;;;;;;7.70;5.40;;;;;;;23.48;45.24;100783.16;5113474;28;20044;-69
2023/09/30 08:42:40;;;;;;;8.18;5.75;;;;;;;23.48;45.30;100781.28;5113630;28;20067;-64
2023/09/30 08:45:14;;;;;;;6.90;5.07;;;;;;;23.51;45.35;100771.94;5112663;28;20136;-66
2023/09/30 08:47:43;;;;;;;7.53;5.38;;;;;;;23.51;45.35;100778.22;5112431;28;20583;-65
2023/09/30 08:50:12;;;;;;;7.82;5.80;;;;;;;23.53;45.32;100769.88;5112447;28;20040;-65
2023/09/30 08:52:44;;;;;;;8.55;5.35;;;;;;;23.54;45.12;100777.03;5112502;28;20040;-66
2023/09/30 08:55:13;;;;;;;7.82;5.22;;;;;;;23.55;45.40;100766.00;5112336;28;20052;-66
2023/09/30 08:57:42;;;;;;;7.75;5.78;;;;;;;23.58;45.40;100767.53;5112481;28;20052;-65
2023/09/30 09:00:12;;;;;;;7.05;5.28;;;;;;;23.59;45.31;100763.84;5112604;28;20051;-66
2023/09/30 09:02:42;;;;;;;7.63;5.53;;;;;;;23.62;45.10;100758.03;5112428;28;20126;-66
2023/09/30 09:05:11;;;;;;;7.10;5.15;;;;;;;23.63;45.20;100754.31;5112356;28;20047;-66
2023/09/30 09:07:42;;;;;;;8.35;5.53;;;;;;;23.64;45.21;100761.44;5111947;28;20047;-65
2023/09/30 09:10:13;;;;;;;8.27;5.15;;;;;;;23.65;45.27;100760.47;5112289;28;20047;-65
2023/09/30 09:12:44;;;;;;;7.68;5.22;;;;;;;23.66;45.46;100764.88;5111985;28;20558;-65
2023/09/30 09:15:22;;;;;;;7.00;5.53;;;;;;;23.68;45.40;100762.84;5112433;28;20092;-65
2023/09/30 09:17:52;;;;;;;8.10;5.60;;;;;;;23.69;45.45;100761.81;5111980;28;20052;-65
2023/09/30 09:20:22;;;;;;;8.88;5.78;;;;;;;23.69;45.32;100762.69;5112385;28;20154;-65
2023/09/30 09:22:54;;;;;;;7.18;4.75;;;;;;;23.72;45.44;100768.81;5112111;28;20044;-66
2023/09/30 09:25:23;;;;;;;6.68;4.93;;;;;;;23.73;45.47;100768.63;5112155;28;20563;-66
2023/09/30 09:27:53;;;;;;;7.07;5.18;;;;;;;23.74;45.48;100773.09;5112362;28;20104;-65
2023/09/30 09:30:23;;;;;;;6.80;5.10;;;;;;;23.75;45.49;100760.31;5111971;28;20040;-66
2023/09/30 09:32:59;;;;;;;7.38;5.22;;;;;;;23.76;45.49;100762.88;5111941;28;20523;-66
2023/09/30 09:35:30;;;;;;;6.97;5.53;;;;;;;23.77;45.62;100750.97;5112127;28;20068;-66
2023/09/30 09:38:03;;;;;;;7.45;4.72;;;;;;;23.78;45.49;100751.81;5109942;28;20039;-64
2023/09/30 09:40:33;;;;;;;6.57;4.97;;;;;;;23.78;45.54;100757.25;5111451;28;20052;-64
2023/09/30 09:43:04;;;;;;;6.32;4.55;;;;;;;23.78;45.53;100752.66;5110990;28;20051;-65
2023/09/30 09:45:35;;;;;;;7.63;5.07;;;;;;;23.79;45.54;100754.38;5111776;28;20110;-65
2023/09/30 09:48:06;;;;;;;6.78;5.03;;;;;;;23.80;45.53;100750.63;5111388;28;20575;-64
2023/09/30 09:50:37;;;;;;;6.45;4.80;;;;;;;23.81;45.45;100760.50;5111572;28;20054;-70
2023/09/30 09:53:10;;;;;;;16.42;5.50;;;;;;;23.84;46.11;100762.91;5111506;28;20059;-66
2023/09/30 09:55:41;;;;;;;10.95;5.07;;;;;;;23.87;45.81;100759.84;5111330;28;20048;-68
2023/09/30 09:58:10;;;;;;;10.07;5.03;;;;;;;23.88;45.73;100758.81;5111630;28;20051;-63
2023/09/30 10:00:39;;;;;;;9.38;4.88;;;;;;;23.88;45.80;100752.53;5111586;28;20104;-64
2023/09/30 10:03:09;;;;;;;8.40;4.75;;;;;;;23.87;45.81;100754.41;5111379;28;20044;-67
2023/09/30 10:05:40;;;;;;;9.27;5.22;;;;;;;23.91;46.25;100753.03;5111458;28;20044;-63
2023/09/30 10:08:13;;;;;;;8.30;4.93;;;;;;;23.93;46.32;100752.84;5111394;28;20073;-64
2023/09/30 10:10:43;;;;;;;8.38;4.70;;;;;;;23.95;45.98;100748.13;5111095;28;20044;-64
2023/09/30 10:13:50;;;;;;;10.95;4.97;;;;;;;23.96;46.04;100749.81;5111188;28;20151;-65
2023/09/30 10:16:50;;;;;;;9.18;5.15;;;;;;;23.98;46.05;100753.22;5111442;28;20043;-63
2023/09/30 10:19:22;;;;;;;7.40;4.88;;;;;;;23.98;45.95;100754.06;5110890;28;20040;-64
2023/09/30 10:22:22;;;;;;;6.65;4.50;;;;;;;23.99;46.04;100742.16;5108449;28;20054;-70
2023/09/30 10:24:53;;;;;;;7.35;4.65;;;;;;;24.02;45.96;100745.56;5107378;28;20202;-63
2023/09/30 10:27:37;;;;;;;7.80;4.55;;;;;;;24.03;45.96;100733.63;5099116;28;20050;-63
2023/09/30 10:30:16;;;;;;;7.30;4.70;;;;;;;24.05;46.24;100731.63;5088360;28;20049;-64
2023/09/30 10:33:12;;;;;;;6.93;4.82;;;;;;;24.06;46.41;100734.16;5088216;28;20056;-64
2023/09/30 10:35:48;;;;;;;6.57;4.82;;;;;;;24.07;46.38;100737.75;5090699;28;20117;-64
2023/09/30 10:38:43;;;;;;;6.82;4.75;;;;;;;24.07;46.58;100735.03;5091069;28;20151;-64
2023/09/30 10:41:50;;;;;;;6.63;4.47;;;;;;;24.08;46.66;100740.31;5090144;28;20396;-64
2023/09/30 10:44:34;;;;;;;;;;;;;;;24.08;46.58;100723.09;5109160;28;20043;-65
2023/09/30 10:47:37;;;;;;;8.82;5.30;;;;;;;24.08;46.74;100734.00;5110960;28;19926;-63
2023/09/30 10:50:42;;;;;;;9.40;5.15;;;;;;;24.09;46.81;100724.81;5114351;28;20130;-64
2023/09/30 10:53:10;;;;;;;8.65;5.20;;;;;;;24.07;46.88;100730.44;5114502;28;20123;-64
2023/09/30 10:55:42;;;;;;;10.02;4.93;;;;;;;24.08;46.65;100734.00;5114172;28;20047;-64
2023/09/30 10:58:12;;;;;;;7.22;4.82;;;;;;;24.08;46.74;100734.00;5114596;28;20083;-64
2023/09/30 11:00:43;;;;;;;8.07;5.40;;;;;;;24.08;46.63;100731.28;5114297;28;20047;-64
2023/09/30 11:03:12;;;;;;;8.75;5.40;;;;;;;24.08;46.66;100734.00;5114411;28;20078;-64
2023/09/30 11:05:41;;;;;;;8.75;5.50;;;;;;;24.07;46.61;100732.31;5114030;28;20048;-64
2023/09/30 11:08:16;;;;;;;6.43;4.80;;;;;;;24.06;46.54;100727.88;5114185;28;20047;-64
2023/09/30 11:10:48;;;;;;;7.53;4.80;;;;;;;24.05;46.67;100728.91;5113805;28;20079;-64
2023/09/30 11:13:18;;;;;;;7.47;5.05;;;;;;;24.04;46.66;100729.91;5114169;28;20048;-64
2023/09/30 11:15:47;;;;;;;7.78;4.55;;;;;;;24.02;46.56;100727.34;5114215;28;20044;-64
2023/09/30 11:18:16;;;;;;;6.72;4.88;;;;;;;24.00;46.50;100723.94;5114162;28;20043;-64
2023/09/30 11:20:46;;;;;;;8.02;5.53;;;;;;;23.99;46.61;100733.97;5114121;28;20043;-64
2023/09/30 11:23:15;;;;;;;7.55;4.95;;;;;;;23.98;46.66;100736.88;5113650;28;20432;-64
2023/09/30 11:25:44;;;;;;;8.57;4.75;;;;;;;23.96;46.70;100731.59;5113792;28;20523;-65
2023/09/30 11:28:16;;;;;;;7.45;5.07;;;;;;;23.95;46.89;100732.63;5114112;28;20083;-66
2023/09/30 11:30:56;;;;;;;9.43;4.80;;;;;;;23.95;46.74;100727.19;5113870;28;20039;-66
2023/09/30 11:33:26;;;;;;;6.95;5.05;;;;;;;23.96;46.94;100736.19;5114565;28;20057;-62
2023/09/30 11:36:00;;;;;;;7.78;5.50;;;;;;;23.97;46.72;100746.94;5113668;28;20048;-64
2023/09/30 11:38:28;;;;;;;7.45;5.07;;;;;;;23.97;46.71;100741.47;5113911;28;20054;-63
2023/09/30 11:41:02;;;;;;;8.13;5.22;;;;;;;23.96;46.98;100747.94;5113718;28;20048;-63